Time;durP1;ratioP1;P1;durP2;ratioP2;P2;SDS_P1;SDS_P2;PMS_P1;PMS_P2;Temp;Humidity;BMP_temperature;BMP_pressure;BME280_temperature;BME280_humidity;BME280_pressure;Samples;Min_cycle;Max_cycle;Signal;HPM_P1;HPM_P2
2024/01/21 00:01:38;;;;;;;16.67;8.82;;;;;;;;;;5004964;28;20034;-80
2024/01/21 00:04:05;;;;;;;19.55;9.10;;;;;;;;;;5009981;28;20050;-81
2024/01/21 00:06:30;;;;;;;16.02;8.85;;;;;;;;;;5014817;28;20089;-81
2024/01/21 00:08:56;;;;;;;22.80;9.02;;;;;;;;;;5013318;28;20045;-80
2024/01/21 00:11:21;;;;;;;21.20;9.07;;;;;;;;;;5013252;28;20437;-80
2024/01/21 00:13:46;;;;;;;18.40;8.85;;;;;;;;;;5019450;28;20047;-80
2024/01/21 00:16:12;;;;;;;15.90;8.77;;;;;;;;;;5015138;28;20103;-81
2024/01/21 00:18:37;;;;;;;16.70;8.50;;;;;;;;;;5016339;28;20042;-80
2024/01/21 00:21:03;;;;;;;16.75;8.68;;;;;;;;;;5014375;28;20042;-80
2024/01/21 00:23:28;;;;;;;19.77;9.07;;;;;;;;;;5019976;28;20041;-80
2024/01/21 00:25:53;;;;;;;17.17;8.23;;;;;;;;;;5013459;28;20124;-79
2024/01/21 00:28:19;;;;;;;16.58;8.15;;;;;;;;;;5001223;28;20037;-80
2024/01/21 00:30:44;;;;;;;16.67;8.52;;;;;;;;;;5017414;28;20485;-80
2024/01/21 00:33:09;;;;;;;17.05;8.30;;;;;;;;;;5005517;28;20402;-80
2024/01/21 00:35:35;;;;;;;15.38;8.18;;;;;;;;;;5014631;28;20504;-81
2024/01/21 00:38:00;;;;;;;19.15;9.23;;;;;;;;;;5007157;28;20589;-79
2024/01/21 00:40:25;;;;;;;17.90;9.02;;;;;;;;;;5002109;28;20490;-80
2024/01/21 00:42:51;;;;;;;15.93;8.27;;;;;;;;;;4993337;28;20820;-80
2024/01/21 00:45:16;;;;;;;16.65;8.80;;;;;;;;;;4994822;28;20506;-81
2024/01/21 00:47:44;;;;;;;19.45;8.70;;;;;;;;;;4995961;28;20053;-81
2024/01/21 00:50:09;;;;;;;16.55;8.73;;;;;;;;;;4982257;28;20040;-82
2024/01/21 00:52:37;;;;;;;17.15;9.52;;;;;;;;;;5017294;28;20040;-82
2024/01/21 00:55:03;;;;;;;18.05;8.55;;;;;;;;;;5021106;28;20533;-82
2024/01/21 00:57:28;;;;;;;18.98;9.23;;;;;;;;;;5015495;28;20054;-82
2024/01/21 00:59:53;;;;;;;18.08;8.27;;;;;;;;;;5012202;28;20562;-81
2024/01/21 01:02:19;;;;;;;17.58;8.30;;;;;;;;;;5015021;28;20067;-82
2024/01/21 01:04:44;;;;;;;18.92;8.52;;;;;;;;;;4999542;28;20037;-83
2024/01/21 01:07:09;;;;;;;19.23;8.65;;;;;;;;;;5001059;28;20037;-83
2024/01/21 01:09:36;;;;;;;16.05;8.23;;;;;;;;;;5011043;28;20030;-83
2024/01/21 01:12:01;;;;;;;15.07;8.68;;;;;;;;;;5014223;28;20059;-82
2024/01/21 01:14:27;;;;;;;18.77;9.25;;;;;;;;;;5014584;28;20025;-81
2024/01/21 01:16:52;;;;;;;18.35;8.90;;;;;;;;;;5011019;28;20033;-81
2024/01/21 01:19:19;;;;;;;19.42;8.90;;;;;;;;;;5010970;28;20045;-81
2024/01/21 01:21:45;;;;;;;19.33;9.00;;;;;;;;;;5022289;28;20042;-81
2024/01/21 01:24:13;;;;;;;17.00;8.30;;;;;;;;;;4996459;28;20038;-81
2024/01/21 01:26:39;;;;;;;18.02;8.25;;;;;;;;;;5014052;28;20536;-81
2024/01/21 01:29:04;;;;;;;14.75;7.72;;;;;;;;;;5014969;28;20042;-81
2024/01/21 01:31:29;;;;;;;14.88;7.55;;;;;;;;;;5011968;28;20064;-81
2024/01/21 01:33:55;;;;;;;15.20;8.68;;;;;;;;;;5000307;28;20048;-82
2024/01/21 01:36:20;;;;;;;15.48;8.00;;;;;;;;;;4997445;28;20037;-81
2024/01/21 01:38:45;;;;;;;16.77;8.48;;;;;;;;;;5014582;28;20034;-82
2024/01/21 01:41:11;;;;;;;15.45;7.70;;;;;;;;;;5011285;28;20038;-82
2024/01/21 01:43:36;;;;;;;17.15;8.23;;;;;;;;;;5000627;28;20036;-81
2024/01/21 01:46:03;;;;;;;18.35;8.82;;;;;;;;;;5014702;28;20065;-81
2024/01/21 01:48:29;;;;;;;17.48;8.73;;;;;;;;;;5022684;28;20041;-82
2024/01/21 01:50:57;;;;;;;17.60;8.18;;;;;;;;;;5016949;28;20044;-82
2024/01/21 01:53:22;;;;;;;16.55;8.35;;;;;;;;;;4997785;28;20042;-81
2024/01/21 01:55:48;;;;;;;18.38;8.02;;;;;;;;;;5006975;28;20029;-81
2024/01/21 01:58:15;;;;;;;13.07;7.30;;;;;;;;;;4985886;28;20031;-82
2024/01/21 02:00:40;;;;;;;15.52;7.63;;;;;;;;;;4999155;28;20033;-81
2024/01/21 02:03:06;;;;;;;16.35;7.60;;;;;;;;;;5015588;28;20033;-81
2024/01/21 02:05:32;;;;;;;16.02;7.60;;;;;;;;;;5011328;28;20413;-81
2024/01/21 02:07:57;;;;;;;15.20;7.30;;;;;;;;;;5000473;28;20405;-81
2024/01/21 02:10:22;;;;;;;15.05;6.95;;;;;;;;;;4996250;28;20462;-82
2024/01/21 02:12:48;;;;;;;14.50;7.38;;;;;;;;;;5014019;28;20026;-81
2024/01/21 02:15:13;;;;;;;15.40;7.25;;;;;;;;;;5014488;28;20037;-82
2024/01/21 02:17:39;;;;;;;15.98;8.00;;;;;;;;;;5015265;28;20036;-82
2024/01/21 02:20:07;;;;;;;13.02;6.85;;;;;;;;;;5004167;28;20042;-81
2024/01/21 02:22:34;;;;;;;13.68;6.88;;;;;;;;;;5016201;28;20124;-81
2024/01/21 02:24:59;;;;;;;12.05;6.68;;;;;;;;;;4996805;28;20042;-82
2024/01/21 02:27:25;;;;;;;14.02;6.78;;;;;;;;;;5017250;28;21011;-81
2024/01/21 02:29:50;;;;;;;14.35;7.45;;;;;;;;;;5018944;28;20072;-81
2024/01/21 02:32:15;;;;;;;14.18;6.95;;;;;;;;;;5015958;28;20025;-81
2024/01/21 02:34:41;;;;;;;14.68;6.80;;;;;;;;;;5003936;28;20497;-82
2024/01/21 02:37:06;;;;;;;13.65;7.03;;;;;;;;;;5015936;28;20042;-82
2024/01/21 02:39:31;;;;;;;13.63;7.38;;;;;;;;;;5018601;28;20039;-82
2024/01/21 02:41:57;;;;;;;12.93;6.35;;;;;;;;;;5001002;28;20037;-84
2024/01/21 02:44:22;;;;;;;13.80;6.80;;;;;;;;;;5015557;28;20115;-83
2024/01/21 02:46:47;;;;;;;15.20;7.10;;;;;;;;;;5017630;28;20203;-83
2024/01/21 02:49:13;;;;;;;13.13;6.78;;;;;;;;;;5016792;28;20041;-83
2024/01/21 02:51:38;;;;;;;11.15;6.30;;;;;;;;;;5018052;28;20128;-84
2024/01/21 02:54:03;;;;;;;13.40;6.60;;;;;;;;;;5019411;28;20065;-83
2024/01/21 02:56:29;;;;;;;12.82;7.15;;;;;;;;;;5018049;28;20030;-83
2024/01/21 02:58:54;;;;;;;12.88;7.03;;;;;;;;;;4982843;28;20177;-84
2024/01/21 03:01:20;;;;;;;15.10;6.82;;;;;;;;;;5015704;28;20064;-84
2024/01/21 03:03:46;;;;;;;14.27;7.32;;;;;;;;;;5014330;28;20034;-84
2024/01/21 03:06:12;;;;;;;11.93;6.55;;;;;;;;;;4993890;28;20084;-83
2024/01/21 03:08:37;;;;;;;15.63;6.88;;;;;;;;;;4994489;28;20031;-83
2024/01/21 03:11:03;;;;;;;13.10;6.75;;;;;;;;;;4994492;28;20088;-84
2024/01/21 03:13:28;;;;;;;13.48;6.70;;;;;;;;;;4996077;28;20378;-82
2024/01/21 03:15:54;;;;;;;13.30;7.03;;;;;;;;;;4982675;28;20054;-82
2024/01/21 03:18:19;;;;;;;10.50;6.35;;;;;;;;;;5005210;28;20037;-83
2024/01/21 03:20:45;;;;;;;11.25;6.40;;;;;;;;;;5014357;28;20071;-84
2024/01/21 03:23:10;;;;;;;14.35;7.15;;;;;;;;;;5014389;28;20042;-83
2024/01/21 03:25:36;;;;;;;11.23;6.30;;;;;;;;;;5012974;28;20034;-84
2024/01/21 03:28:03;;;;;;;13.23;6.85;;;;;;;;;;5016560;28;20188;-84
2024/01/21 03:30:28;;;;;;;15.52;6.88;;;;;;;;;;5001893;28;20025;-84
2024/01/21 03:32:54;;;;;;;10.70;6.20;;;;;;;;;;5030354;28;20045;-83
2024/01/21 03:35:19;;;;;;;11.50;5.93;;;;;;;;;;5007871;28;20053;-82
2024/01/21 03:37:45;;;;;;;14.50;6.45;;;;;;;;;;5013287;28;20040;-82
2024/01/21 03:40:10;;;;;;;11.52;6.43;;;;;;;;;;5017120;28;20176;-82
2024/01/21 03:42:35;;;;;;;13.82;6.68;;;;;;;;;;5013457;28;20375;-82
2024/01/21 03:45:01;;;;;;;13.18;6.55;;;;;;;;;;5014701;28;20042;-81
2024/01/21 03:47:26;;;;;;;14.55;6.85;;;;;;;;;;5012369;28;20065;-82
2024/01/21 03:49:52;;;;;;;10.55;6.20;;;;;;;;;;5012931;28;20037;-81
2024/01/21 03:52:17;;;;;;;11.57;6.05;;;;;;;;;;5016094;28;20033;-82
2024/01/21 03:54:43;;;;;;;11.82;6.38;;;;;;;;;;5014579;28;20113;-82
2024/01/21 03:57:08;;;;;;;11.45;6.40;;;;;;;;;;4998808;28;20050;-83
2024/01/21 03:59:34;;;;;;;11.07;6.28;;;;;;;;;;4994659;28;20037;-82
2024/01/21 04:01:59;;;;;;;13.93;6.25;;;;;;;;;;4986283;28;20700;-82
2024/01/21 04:04:24;;;;;;;12.57;6.45;;;;;;;;;;4999490;28;20393;-82
2024/01/21 04:06:50;;;;;;;11.65;6.30;;;;;;;;;;5013681;28;20117;-82
2024/01/21 04:09:19;;;;;;;12.93;6.55;;;;;;;;;;5015887;28;20286;-82
2024/01/21 04:11:45;;;;;;;13.43;6.63;;;;;;;;;;5002268;28;20494;-82
2024/01/21 04:14:10;;;;;;;12.55;7.03;;;;;;;;;;5021552;28;20034;-83
2024/01/21 04:16:36;;;;;;;13.45;6.40;;;;;;;;;;5006666;28;20061;-83
2024/01/21 04:19:01;;;;;;;13.48;6.60;;;;;;;;;;5001354;28;20037;-82
2024/01/21 04:21:26;;;;;;;12.88;6.40;;;;;;;;;;4990229;28;20034;-82
2024/01/21 04:23:52;;;;;;;13.20;6.38;;;;;;;;;;5002390;28;20533;-82
2024/01/21 04:26:17;;;;;;;12.20;6.18;;;;;;;;;;4994618;28;20064;-83
2024/01/21 04:28:42;;;;;;;12.25;6.60;;;;;;;;;;5014415;28;20072;-82
2024/01/21 04:31:08;;;;;;;11.27;6.43;;;;;;;;;;5013930;28;20490;-82
2024/01/21 04:33:35;;;;;;;11.00;5.60;;;;;;;;;;5016830;28;20552;-82
2024/01/21 04:36:00;;;;;;;11.18;5.72;;;;;;;;;;5013123;28;20048;-83
2024/01/21 04:38:26;;;;;;;12.38;7.05;;;;;;;;;;5015906;28;20409;-81
2024/01/21 04:40:52;;;;;;;12.93;6.40;;;;;;;;;;5015888;28;20033;-82
2024/01/21 04:43:18;;;;;;;10.90;5.90;;;;;;;;;;5012696;28;20065;-82
2024/01/21 04:45:43;;;;;;;11.48;6.13;;;;;;;;;;5008399;28;20116;-83
2024/01/21 04:48:08;;;;;;;12.50;6.07;;;;;;;;;;4991198;28;20042;-82
2024/01/21 04:50:34;;;;;;;12.13;6.40;;;;;;;;;;5014126;28;20034;-81
2024/01/21 04:52:59;;;;;;;11.93;6.63;;;;;;;;;;4994242;28;20563;-82
2024/01/21 04:55:24;;;;;;;11.25;6.30;;;;;;;;;;5012356;28;20030;-82
2024/01/21 04:57:50;;;;;;;11.23;6.30;;;;;;;;;;5015260;28;20030;-81
2024/01/21 05:00:16;;;;;;;11.68;6.28;;;;;;;;;;4996253;28;20124;-82
2024/01/21 05:02:41;;;;;;;11.95;5.75;;;;;;;;;;5013841;28;20121;-82
2024/01/21 05:05:07;;;;;;;10.55;6.47;;;;;;;;;;5011805;28;20080;-82
2024/01/21 05:07:32;;;;;;;10.93;6.03;;;;;;;;;;5012383;28;20735;-82
2024/01/21 05:09:57;;;;;;;11.60;6.30;;;;;;;;;;5012551;28;20509;-82
2024/01/21 05:12:23;;;;;;;14.27;7.15;;;;;;;;;;5013510;28;20030;-82
2024/01/21 05:14:48;;;;;;;11.43;6.40;;;;;;;;;;5015907;28;20053;-82
2024/01/21 05:17:13;;;;;;;10.93;6.15;;;;;;;;;;5011564;28;20034;-82
2024/01/21 05:19:39;;;;;;;11.60;5.95;;;;;;;;;;5014240;28;20087;-82
2024/01/21 05:22:04;;;;;;;10.32;6.00;;;;;;;;;;4999986;28;20482;-82
2024/01/21 05:24:30;;;;;;;12.43;6.20;;;;;;;;;;4993098;28;20145;-82
2024/01/21 05:26:55;;;;;;;11.50;6.50;;;;;;;;;;4990561;28;20042;-82
2024/01/21 05:29:21;;;;;;;12.77;6.82;;;;;;;;;;5015206;28;20037;-81
2024/01/21 05:31:47;;;;;;;12.48;6.57;;;;;;;;;;5014406;28;20044;-82
2024/01/21 05:34:13;;;;;;;12.80;6.35;;;;;;;;;;5013100;28;20489;-82
2024/01/21 05:36:38;;;;;;;13.57;6.80;;;;;;;;;;5021975;28;20063;-81
2024/01/21 05:39:03;;;;;;;12.93;7.18;;;;;;;;;;5007204;28;20489;-82
2024/01/21 05:41:29;;;;;;;14.68;6.18;;;;;;;;;;4993643;28;20417;-82
2024/01/21 05:43:55;;;;;;;14.23;6.90;;;;;;;;;;4995973;28;20149;-82
2024/01/21 05:46:20;;;;;;;15.23;6.72;;;;;;;;;;4994444;28;20034;-82
2024/01/21 05:48:45;;;;;;;11.65;5.82;;;;;;;;;;4982410;28;20359;-81
2024/01/21 05:51:11;;;;;;;11.50;6.45;;;;;;;;;;4997095;28;20494;-83
2024/01/21 05:53:38;;;;;;;15.10;7.30;;;;;;;;;;4997768;28;20462;-82
2024/01/21 05:56:04;;;;;;;11.50;5.90;;;;;;;;;;4997997;28;20045;-82
2024/01/21 05:58:30;;;;;;;14.45;5.80;;;;;;;;;;4995313;28;20034;-81
2024/01/21 06:00:55;;;;;;;13.48;6.50;;;;;;;;;;4985093;28;20555;-82
2024/01/21 06:03:21;;;;;;;11.73;5.65;;;;;;;;;;4999923;28;20037;-81
2024/01/21 06:05:46;;;;;;;11.82;5.82;;;;;;;;;;4997415;28;20098;-82
2024/01/21 06:08:11;;;;;;;14.20;6.43;;;;;;;;;;5014186;28;20034;-82
2024/01/21 06:10:37;;;;;;;11.00;6.07;;;;;;;;;;5015152;28;20144;-81
2024/01/21 06:13:02;;;;;;;11.55;5.72;;;;;;;;;;5017780;28;20604;-82
2024/01/21 06:15:28;;;;;;;11.77;6.03;;;;;;;;;;5000694;28;20508;-83
2024/01/21 06:17:53;;;;;;;9.25;5.25;;;;;;;;;;5001214;28;20180;-82
2024/01/21 06:20:18;;;;;;;10.65;5.68;;;;;;;;;;4996601;28;20045;-82
2024/01/21 06:22:44;;;;;;;11.23;5.78;;;;;;;;;;4993111;28;20118;-82
2024/01/21 06:25:11;;;;;;;10.25;5.82;;;;;;;;;;4985969;28;20547;-82
2024/01/21 06:27:36;;;;;;;;;;;;;;;;;;5018690;28;20584;-82
2024/01/21 06:30:12;;;;;;;10.97;5.30;;;;;;;;;;5001056;28;19923;-82
2024/01/21 06:32:38;;;;;;;11.65;5.82;;;;;;;;;;5015231;28;20338;-82
2024/01/21 06:35:04;;;;;;;11.65;5.72;;;;;;;;;;5018297;28;20397;-82
2024/01/21 06:37:29;;;;;;;10.60;5.90;;;;;;;;;;5014464;28;20034;-82
2024/01/21 06:39:54;;;;;;;10.60;5.75;;;;;;;;;;5019566;28;20045;-82
2024/01/21 06:42:20;;;;;;;12.18;5.93;;;;;;;;;;5012609;28;20034;-83
2024/01/21 06:44:45;;;;;;;12.55;6.15;;;;;;;;;;5017780;28;20044;-82
2024/01/21 06:47:10;;;;;;;10.93;5.57;;;;;;;;;;5004149;28;20490;-82
2024/01/21 06:49:36;;;;;;;13.02;5.70;;;;;;;;;;4995924;28;20058;-82
2024/01/21 06:52:01;;;;;;;12.88;5.90;;;;;;;;;;4999025;28;20089;-82
2024/01/21 06:54:27;;;;;;;11.45;5.85;;;;;;;;;;5018289;28;20045;-82
2024/01/21 06:56:52;;;;;;;12.13;6.22;;;;;;;;;;5017711;28;20041;-83
2024/01/21 06:59:17;;;;;;;11.52;5.93;;;;;;;;;;5015647;28;20061;-82
2024/01/21 07:01:43;;;;;;;11.48;5.95;;;;;;;;;;5014208;28;20037;-82
2024/01/21 07:04:08;;;;;;;9.93;5.47;;;;;;;;;;5014654;28;20029;-84
2024/01/21 07:06:33;;;;;;;10.68;5.40;;;;;;;;;;5014573;28;20040;-82
2024/01/21 07:08:59;;;;;;;13.10;5.63;;;;;;;;;;5017426;28;20417;-83
2024/01/21 07:11:25;;;;;;;10.68;5.50;;;;;;;;;;5017034;28;20037;-82
2024/01/21 07:13:50;;;;;;;11.55;5.07;;;;;;;;;;5010395;28;20095;-83
2024/01/21 07:16:16;;;;;;;13.55;6.00;;;;;;;;;;5006116;28;20513;-82
2024/01/21 07:18:41;;;;;;;10.50;5.43;;;;;;;;;;5021794;28;20128;-82
2024/01/21 07:21:07;;;;;;;9.23;5.07;;;;;;;;;;4998606;28;20038;-82
2024/01/21 07:23:32;;;;;;;9.27;5.20;;;;;;;;;;4982779;28;20030;-80
2024/01/21 07:25:57;;;;;;;10.52;5.25;;;;;;;;;;4996804;28;20561;-82
2024/01/21 07:28:23;;;;;;;11.93;5.63;;;;;;;;;;4995935;28;20038;-80
2024/01/21 07:30:48;;;;;;;10.43;5.10;;;;;;;;;;4983244;28;20091;-81
2024/01/21 07:33:14;;;;;;;10.98;5.35;;;;;;;;;;4998064;28;20033;-81
2024/01/21 07:35:39;;;;;;;9.48;4.75;;;;;;;;;;5000422;28;20030;-81
2024/01/21 07:38:04;;;;;;;11.02;5.00;;;;;;;;;;4998011;28;20038;-81
2024/01/21 07:40:31;;;;;;;9.05;4.70;;;;;;;;;;4998851;28;20478;-81
2024/01/21 07:42:57;;;;;;;9.23;5.07;;;;;;;;;;4994690;28;20196;-80
2024/01/21 07:45:22;;;;;;;10.55;5.25;;;;;;;;;;4994299;28;20145;-80
2024/01/21 07:47:48;;;;;;;10.27;5.00;;;;;;;;;;5005051;28;20766;-80
2024/01/21 07:50:13;;;;;;;10.15;4.70;;;;;;;;;;5021018;28;20124;-80
2024/01/21 07:52:38;;;;;;;9.50;4.63;;;;;;;;;;5015783;28;20156;-80
2024/01/21 07:55:04;;;;;;;8.45;4.57;;;;;;;;;;5014415;28;20045;-81
2024/01/21 07:57:29;;;;;;;8.48;4.72;;;;;;;;;;5014428;28;20567;-80
2024/01/21 07:59:55;;;;;;;9.43;4.72;;;;;;;;;;5020175;28;20061;-81
2024/01/21 08:02:20;;;;;;;9.40;4.55;;;;;;;;;;5017651;28;20041;-81
2024/01/21 08:04:46;;;;;;;7.07;4.03;;;;;;;;;;5013577;28;20048;-80
2024/01/21 08:07:12;;;;;;;7.55;4.05;;;;;;;;;;5011467;28;20042;-80
2024/01/21 08:09:37;;;;;;;8.80;4.30;;;;;;;;;;5021215;28;20095;-80
2024/01/21 08:12:03;;;;;;;8.88;4.43;;;;;;;;;;5015086;28;20104;-81
2024/01/21 08:14:30;;;;;;;7.50;3.95;;;;;;;;;;5002357;28;20044;-80
2024/01/21 08:16:55;;;;;;;8.35;3.78;;;;;;;;;;4999096;28;20041;-79
2024/01/21 08:19:21;;;;;;;9.15;4.25;;;;;;;;;;5012767;28;20445;-80
2024/01/21 08:21:47;;;;;;;8.55;4.00;;;;;;;;;;5016469;28;20554;-80
2024/01/21 08:24:13;;;;;;;10.25;4.18;;;;;;;;;;5014380;28;20044;-81
2024/01/21 08:26:38;;;;;;;7.47;3.42;;;;;;;;;;5015029;28;20140;-79
2024/01/21 08:29:04;;;;;;;6.90;3.50;;;;;;;;;;5014498;28;20066;-80
2024/01/21 08:31:29;;;;;;;7.00;3.85;;;;;;;;;;4981976;28;20104;-81
2024/01/21 08:33:55;;;;;;;6.93;3.58;;;;;;;;;;5010608;28;20048;-79
2024/01/21 08:36:20;;;;;;;8.68;3.50;;;;;;;;;;4997593;28;20037;-80
2024/01/21 08:38:46;;;;;;;8.02;3.63;;;;;;;;;;4981981;28;20153;-82
2024/01/21 08:41:32;;;;;;;6.68;3.20;;;;;;;;;;4983216;28;20144;-81
2024/01/21 08:43:57;;;;;;;7.70;3.83;;;;;;;;;;5006412;28;20072;-81
2024/01/21 08:46:23;;;;;;;7.68;3.67;;;;;;;;;;5013350;28;20065;-80
2024/01/21 08:48:48;;;;;;;6.95;3.83;;;;;;;;;;5015407;28;20060;-81
2024/01/21 08:51:14;;;;;;;9.18;4.32;;;;;;;;;;5013454;28;20532;-80
2024/01/21 08:53:39;;;;;;;8.20;3.83;;;;;;;;;;5005646;28;20036;-80
2024/01/21 08:56:05;;;;;;;7.53;4.20;;;;;;;;;;5010977;28;20026;-81
2024/01/21 08:58:30;;;;;;;6.15;3.15;;;;;;;;;;5000299;28;20038;-80
2024/01/21 09:00:56;;;;;;;6.50;3.33;;;;;;;;;;5012949;28;20048;-79
2024/01/21 09:03:21;;;;;;;6.63;3.17;;;;;;;;;;5001366;28;20029;-81
2024/01/21 09:05:46;;;;;;;6.50;2.75;;;;;;;;;;4983307;28;20216;-81
2024/01/21 09:08:12;;;;;;;5.85;3.10;;;;;;;;;;5012561;28;20471;-83
2024/01/21 09:10:37;;;;;;;5.78;2.83;;;;;;;;;;5012347;28;20515;-84
2024/01/21 09:13:03;;;;;;;6.43;2.92;;;;;;;;;;5016712;28;20117;-83
2024/01/21 09:15:28;;;;;;;8.90;2.53;;;;;;;;;;5016766;28;20048;-82
2024/01/21 09:17:54;;;;;;;6.68;2.90;;;;;;;;;;5015689;28;20044;-83
2024/01/21 09:20:19;;;;;;;7.28;3.33;;;;;;;;;;5015305;28;20029;-82
2024/01/21 09:22:45;;;;;;;7.65;3.30;;;;;;;;;;5018018;28;20153;-83
2024/01/21 09:25:10;;;;;;;6.18;2.95;;;;;;;;;;5009866;28;20045;-83
2024/01/21 09:27:36;;;;;;;7.97;3.10;;;;;;;;;;5020644;28;20057;-83
2024/01/21 09:30:01;;;;;;;6.65;2.92;;;;;;;;;;5018143;28;20045;-84
2024/01/21 09:32:28;;;;;;;5.88;3.20;;;;;;;;;;5016047;28;20113;-81
2024/01/21 09:34:53;;;;;;;5.90;2.80;;;;;;;;;;5009237;28;20041;-81
2024/01/21 09:37:20;;;;;;;6.65;2.67;;;;;;;;;;5009370;28;20508;-83
2024/01/21 09:39:46;;;;;;;8.00;3.63;;;;;;;;;;4967990;28;20379;-81
2024/01/21 09:42:13;;;;;;;4.50;2.30;;;;;;;;;;4996468;28;20042;-82
2024/01/21 09:44:39;;;;;;;5.57;2.30;;;;;;;;;;4990404;28;20087;-82
2024/01/21 09:47:04;;;;;;;5.05;2.10;;;;;;;;;;5017176;28;20037;-82
2024/01/21 09:49:34;;;;;;;5.57;2.40;;;;;;;;;;5016389;28;20082;-81
2024/01/21 09:52:02;;;;;;;4.15;2.13;;;;;;;;;;5011894;28;20041;-83
2024/01/21 09:54:28;;;;;;;4.45;2.03;;;;;;;;;;4997350;28;20030;-81
2024/01/21 09:56:54;;;;;;;5.15;2.25;;;;;;;;;;5012756;28;20107;-81
2024/01/21 09:59:19;;;;;;;5.43;2.45;;;;;;;;;;5016779;28;20103;-82
2024/01/21 10:01:45;;;;;;;5.43;2.05;;;;;;;;;;5008967;28;20077;-83
2024/01/21 10:04:14;;;;;;;5.00;2.30;;;;;;;;;;5012548;28;20037;-82
2024/01/21 10:06:43;;;;;;;5.20;1.70;;;;;;;;;;5024667;28;20393;-84
2024/01/21 10:09:29;;;;;;;4.78;1.98;;;;;;;;;;5018521;28;20046;-83
2024/01/21 10:11:56;;;;;;;4.95;1.63;;;;;;;;;;5005430;28;20096;-81
2024/01/21 10:14:22;;;;;;;3.75;1.85;;;;;;;;;;5020455;28;20038;-84
2024/01/21 10:16:49;;;;;;;4.82;1.98;;;;;;;;;;5019707;28;20049;-83
2024/01/21 10:19:15;;;;;;;4.68;2.17;;;;;;;;;;5005090;28;20049;-83
2024/01/21 10:21:41;;;;;;;4.55;2.00;;;;;;;;;;5015488;28;20034;-83
2024/01/21 10:24:08;;;;;;;3.42;1.65;;;;;;;;;;5021644;28;20492;-82
2024/01/21 10:26:36;;;;;;;4.65;2.17;;;;;;;;;;5002192;28;20030;-82
2024/01/21 10:29:01;;;;;;;;;;;;;;;;;;5015742;28;20034;-84
2024/01/21 10:31:27;;;;;;;4.55;1.80;;;;;;;;;;5016468;28;19929;-83
2024/01/21 10:33:52;;;;;;;3.70;1.73;;;;;;;;;;5009817;28;20524;-83
2024/01/21 10:36:18;;;;;;;5.93;1.92;;;;;;;;;;5017654;28;20045;-82
2024/01/21 10:38:50;;;;;;;4.88;1.98;;;;;;;;;;5017136;28;20033;-82
2024/01/21 10:41:24;;;;;;;5.22;2.33;;;;;;;;;;5017345;28;20065;-83
2024/01/21 10:43:51;;;;;;;5.40;2.10;;;;;;;;;;5016608;28;20045;-83
2024/01/21 10:46:17;;;;;;;4.22;1.70;;;;;;;;;;5016284;28;20044;-83
2024/01/21 10:48:42;;;;;;;5.20;2.00;;;;;;;;;;5015040;28;20489;-84
2024/01/21 10:51:09;;;;;;;4.63;1.88;;;;;;;;;;5010632;28;20089;-83
2024/01/21 10:53:35;;;;;;;4.78;2.00;;;;;;;;;;4996541;28;20545;-83
2024/01/21 10:56:00;;;;;;;4.65;2.25;;;;;;;;;;5010945;28;20046;-83
2024/01/21 10:58:26;;;;;;;8.75;2.25;;;;;;;;;;4995511;28;20046;-83
2024/01/21 11:00:52;;;;;;;5.40;2.17;;;;;;;;;;4998529;28;20547;-83
2024/01/21 11:03:26;;;;;;;5.45;2.22;;;;;;;;;;4991446;28;20030;-83
2024/01/21 11:06:01;;;;;;;4.68;2.10;;;;;;;;;;5012763;28;20064;-83
2024/01/21 11:08:27;;;;;;;8.45;2.10;;;;;;;;;;5014018;28;20441;-84
2024/01/21 11:11:11;;;;;;;5.43;1.98;;;;;;;;;;5018694;28;20037;-85
2024/01/21 11:13:48;;;;;;;5.60;1.90;;;;;;;;;;4998664;28;20120;-84
2024/01/21 11:16:35;;;;;;;6.05;2.17;;;;;;;;;;4987083;28;20037;-81
2024/01/21 11:19:06;;;;;;;6.32;2.50;;;;;;;;;;5011591;28;20042;-80
2024/01/21 11:21:34;;;;;;;4.97;2.33;;;;;;;;;;5017674;28;20642;-81
2024/01/21 11:24:12;;;;;;;7.57;2.50;;;;;;;;;;5020076;28;20048;-80
2024/01/21 11:26:38;;;;;;;;;;;;;;;;;;5016596;28;20068;-80
2024/01/21 11:29:23;;;;;;;4.27;1.93;;;;;;;;;;5013983;28;19917;-82
2024/01/21 11:31:49;;;;;;;6.72;2.03;;;;;;;;;;5010590;28;20378;-83
2024/01/21 11:34:16;;;;;;;6.45;2.15;;;;;;;;;;4996468;28;20125;-83
2024/01/21 11:36:43;;;;;;;4.80;2.13;;;;;;;;;;4996435;28;20410;-81
2024/01/21 11:39:08;;;;;;;4.68;1.90;;;;;;;;;;4986966;28;20038;-82
2024/01/21 11:41:38;;;;;;;5.60;1.85;;;;;;;;;;5004247;28;20036;-83
2024/01/21 11:44:26;;;;;;;6.07;2.25;;;;;;;;;;4996419;28;20093;-81
2024/01/21 11:46:56;;;;;;;5.10;2.08;;;;;;;;;;5012415;28;20045;-82
2024/01/21 11:49:22;;;;;;;4.68;2.05;;;;;;;;;;5015441;28;20034;-85
2024/01/21 11:51:48;;;;;;;4.15;2.08;;;;;;;;;;5017762;28;20030;-87
2024/01/21 11:54:14;;;;;;;5.00;2.00;;;;;;;;;;5017029;28;20041;-82
2024/01/21 11:56:40;;;;;;;3.80;1.80;;;;;;;;;;5013243;28;20037;-83
2024/01/21 11:59:07;;;;;;;4.88;2.20;;;;;;;;;;5017926;28;20033;-80
2024/01/21 12:01:33;;;;;;;4.22;1.60;;;;;;;;;;5012566;28;20045;-80
2024/01/21 12:04:03;;;;;;;4.75;2.13;;;;;;;;;;5014383;28;20066;-80
2024/01/21 12:06:38;;;;;;;4.75;1.80;;;;;;;;;;4992892;28;20040;-80
2024/01/21 12:09:03;;;;;;;3.35;1.60;;;;;;;;;;4987906;28;20045;-79
2024/01/21 12:11:33;;;;;;;3.90;1.63;;;;;;;;;;4994866;28;20034;-80
2024/01/21 12:13:59;;;;;;;3.67;1.65;;;;;;;;;;4996271;28;20057;-82
2024/01/21 12:16:25;;;;;;;4.78;1.77;;;;;;;;;;4994421;28;20112;-81
2024/01/21 12:18:50;;;;;;;3.50;1.60;;;;;;;;;;4993621;28;20670;-80
2024/01/21 12:21:16;;;;;;;3.78;1.70;;;;;;;;;;5016919;28;20042;-80
2024/01/21 12:23:46;;;;;;;5.80;1.77;;;;;;;;;;5013419;28;20826;-81
2024/01/21 12:26:19;;;;;;;5.63;1.90;;;;;;;;;;5016901;28;20048;-80
2024/01/21 12:29:03;;;;;;;4.32;1.83;;;;;;;;;;5016029;28;20026;-81
2024/01/21 12:31:39;;;;;;;6.95;2.03;;;;;;;;;;5008284;28;20635;-80
2024/01/21 12:34:09;;;;;;;3.97;1.80;;;;;;;;;;4980990;28;20030;-81
2024/01/21 12:36:36;;;;;;;4.47;2.10;;;;;;;;;;4994675;28;20037;-80
2024/01/21 12:39:06;;;;;;;5.30;1.73;;;;;;;;;;5014742;28;20103;-80
2024/01/21 12:41:32;;;;;;;5.32;1.67;;;;;;;;;;5005764;28;20034;-80
2024/01/21 12:43:58;;;;;;;5.75;1.90;;;;;;;;;;5000004;28;20052;-80
2024/01/21 12:46:23;;;;;;;4.97;1.92;;;;;;;;;;5012492;28;20034;-78
2024/01/21 12:48:49;;;;;;;4.10;1.67;;;;;;;;;;5014730;28;20061;-81
2024/01/21 12:51:19;;;;;;;4.13;1.88;;;;;;;;;;5013006;28;20045;-78
2024/01/21 12:53:50;;;;;;;6.10;1.70;;;;;;;;;;5015214;28;20100;-79
2024/01/21 12:56:16;;;;;;;3.90;1.80;;;;;;;;;;5012888;28;20045;-80
2024/01/21 12:58:41;;;;;;;3.92;1.55;;;;;;;;;;5015959;28;20033;-78
2024/01/21 13:01:08;;;;;;;5.22;2.03;;;;;;;;;;5012494;28;20088;-80
2024/01/21 13:03:34;;;;;;;6.30;1.60;;;;;;;;;;5005351;28;20377;-79
2024/01/21 13:06:06;;;;;;;4.40;1.75;;;;;;;;;;4997820;28;20046;-80
2024/01/21 13:08:34;;;;;;;4.35;2.00;;;;;;;;;;5012681;28;20464;-80
2024/01/21 13:10:59;;;;;;;7.63;1.88;;;;;;;;;;5013326;28;20041;-80
2024/01/21 13:13:28;;;;;;;4.97;1.85;;;;;;;;;;5012677;28;20508;-80
2024/01/21 13:15:53;;;;;;;3.50;1.60;;;;;;;;;;5001528;28;20038;-81
2024/01/21 13:18:19;;;;;;;4.65;1.88;;;;;;;;;;4980295;28;20030;-80
2024/01/21 13:20:44;;;;;;;3.85;1.80;;;;;;;;;;4992705;28;20042;-80
2024/01/21 13:23:10;;;;;;;4.90;1.95;;;;;;;;;;4992560;28;20164;-81
2024/01/21 13:25:36;;;;;;;5.20;1.98;;;;;;;;;;4984195;28;20046;-81
2024/01/21 13:28:14;;;;;;;4.75;2.17;;;;;;;;;;4990879;28;20371;-80
2024/01/21 13:30:43;;;;;;;4.60;1.90;;;;;;;;;;4980387;28;20031;-80
2024/01/21 13:33:11;;;;;;;4.20;1.75;;;;;;;;;;4995540;28;20394;-81
2024/01/21 13:35:36;;;;;;;5.75;2.13;;;;;;;;;;4991902;28;20117;-80
2024/01/21 13:38:02;;;;;;;4.65;2.00;;;;;;;;;;4980302;28;20103;-80
2024/01/21 13:40:27;;;;;;;6.70;2.25;;;;;;;;;;5000869;28;20038;-81
2024/01/21 13:42:54;;;;;;;2.85;1.30;;;;;;;;;;4995923;28;20046;-82
2024/01/21 13:45:20;;;;;;;4.55;2.00;;;;;;;;;;4993380;28;20054;-80
2024/01/21 13:47:45;;;;;;;4.25;2.00;;;;;;;;;;4984083;28;20045;-81
2024/01/21 13:50:10;;;;;;;4.40;1.80;;;;;;;;;;4993148;28;20044;-81
2024/01/21 13:52:36;;;;;;;5.97;1.92;;;;;;;;;;4976138;28;20161;-81
2024/01/21 13:55:05;;;;;;;4.47;2.15;;;;;;;;;;5008819;28;20504;-80
2024/01/21 13:57:32;;;;;;;4.20;1.73;;;;;;;;;;5012434;28;20042;-81
2024/01/21 13:59:57;;;;;;;4.28;1.98;;;;;;;;;;5011648;28;20042;-81
2024/01/21 14:02:22;;;;;;;4.97;2.28;;;;;;;;;;5016257;28;20366;-81
2024/01/21 14:04:48;;;;;;;5.13;2.53;;;;;;;;;;5015263;28;20409;-81
2024/01/21 14:07:14;;;;;;;4.35;1.95;;;;;;;;;;4981653;28;20058;-80
2024/01/21 14:09:39;;;;;;;4.75;2.00;;;;;;;;;;4995598;28;20597;-80
2024/01/21 14:12:05;;;;;;;4.63;2.22;;;;;;;;;;4997155;28;20084;-81
2024/01/21 14:14:30;;;;;;;3.97;1.75;;;;;;;;;;4999380;28;20034;-81
2024/01/21 14:16:59;;;;;;;3.97;1.92;;;;;;;;;;4989351;28;20502;-81
2024/01/21 14:19:24;;;;;;;7.15;2.15;;;;;;;;;;5014843;28;20123;-80
2024/01/21 14:21:49;;;;;;;5.63;2.17;;;;;;;;;;4988745;28;20486;-81
2024/01/21 14:24:15;;;;;;;4.95;2.08;;;;;;;;;;5011627;28;20041;-81
2024/01/21 14:26:44;;;;;;;5.88;2.13;;;;;;;;;;5015639;28;20034;-80
2024/01/21 14:29:34;;;;;;;5.28;1.90;;;;;;;;;;5018721;28;21111;-81
2024/01/21 14:32:00;;;;;;;4.30;1.90;;;;;;;;;;4996596;28;20046;-81